Time;durP1;ratioP1;P1;durP2;ratioP2;P2;SDS_P1;SDS_P2;PMS_P1;PMS_P2;Temp;Humidity;BMP_temperature;BMP_pressure;BME280_temperature;BME280_humidity;BME280_pressure;Samples;Min_cycle;Max_cycle;Signal;HPM_P1;HPM_P2
2021/12/08 00:00:22;;;;;;;19.67;5.25;;;;;;;3.03;100.00;99646.53;4964640;28;20158;-66
2021/12/08 00:02:49;;;;;;;11.15;3.78;;;;;;;3.03;100.00;99627.16;4951412;28;20041;-65
2021/12/08 00:05:17;;;;;;;10.85;3.85;;;;;;;3.05;100.00;99625.72;4971582;28;20035;-65
2021/12/08 00:07:43;;;;;;;9.85;3.92;;;;;;;3.13;100.00;99613.44;4968808;28;20066;-65
2021/12/08 00:15:20;;;;;;;16.02;5.53;;;;;;;3.25;100.00;99600.16;4960385;28;20035;-65
2021/12/08 00:17:45;;;;;;;28.20;5.90;;;;;;;3.26;100.00;99599.03;4963498;28;20730;-65
2021/12/08 00:20:11;;;;;;;15.38;4.00;;;;;;;3.29;100.00;99583.19;4962435;28;20042;-65
2021/12/08 00:22:36;;;;;;;10.60;3.38;;;;;;;3.18;100.00;99582.06;4959739;28;20081;-65
2021/12/08 00:25:03;;;;;;;15.02;4.35;;;;;;;3.20;100.00;99571.09;4965901;28;20032;-65
2021/12/08 00:27:28;;;;;;;6.53;2.88;;;;;;;3.06;100.00;99566.09;4942733;28;20077;-65
2021/12/08 00:29:54;;;;;;;10.10;3.70;;;;;;;3.02;100.00;99549.25;4964001;28;20070;-66
2021/12/08 00:32:25;;;;;;;8.90;3.92;;;;;;;3.06;100.00;99531.53;4971554;28;20492;-65
2021/12/08 00:34:50;;;;;;;;;;;;;;;3.06;100.00;99522.81;4968063;28;20661;-66
2021/12/08 00:37:16;;;;;;;10.18;3.88;;;;;;;3.17;100.00;99511.41;4964206;28;19922;-65
2021/12/08 00:39:41;;;;;;;8.80;4.18;;;;;;;3.25;100.00;99486.53;4971536;28;20515;-65
2021/12/08 00:42:07;;;;;;;9.35;3.92;;;;;;;3.18;100.00;99480.25;4955693;28;20034;-66
2021/12/08 00:44:32;;;;;;;8.35;4.18;;;;;;;3.15;100.00;99476.38;4957861;28;20051;-67
2021/12/08 00:46:57;;;;;;;10.57;3.75;;;;;;;3.03;100.00;99463.09;4963136;28;20106;-66
2021/12/08 00:49:23;;;;;;;4.43;3.40;;;;;;;3.17;100.00;99463.53;4964866;28;20047;-66
2021/12/08 00:51:49;;;;;;;11.15;5.03;;;;;;;3.17;100.00;99462.75;4944200;28;20043;-65
2021/12/08 00:54:14;;;;;;;12.07;3.28;;;;;;;3.12;100.00;99481.56;4954135;28;20035;-66
2021/12/08 00:56:40;;;;;;;13.43;4.38;;;;;;;3.12;100.00;99502.84;4947067;28;20042;-66
2021/12/08 00:59:05;;;;;;;11.25;3.65;;;;;;;3.10;100.00;99494.44;4951956;28;20126;-65
2021/12/08 01:01:31;;;;;;;12.05;4.50;;;;;;;3.06;100.00;99482.94;4972187;28;20113;-71
2021/12/08 01:03:57;;;;;;;9.40;4.03;;;;;;;3.23;100.00;99488.75;4966917;28;20035;-71
2021/12/08 01:06:22;;;;;;;9.05;4.25;;;;;;;3.10;100.00;99486.44;4974552;28;20791;-70
2021/12/08 01:08:48;;;;;;;14.55;4.20;;;;;;;3.07;100.00;99477.28;4974172;28;20114;-71
2021/12/08 01:11:19;;;;;;;13.63;4.00;;;;;;;3.13;100.00;99481.25;4967539;28;20035;-71
2021/12/08 01:13:45;;;;;;;9.68;4.15;;;;;;;3.22;100.00;99505.06;4966191;28;20045;-70
2021/12/08 01:16:11;;;;;;;7.43;3.85;;;;;;;3.12;100.00;99495.66;4960244;28;20042;-69
2021/12/08 01:18:37;;;;;;;6.68;3.22;;;;;;;3.20;100.00;99486.00;4969144;28;20635;-71
2021/12/08 01:21:05;;;;;;;14.77;5.43;;;;;;;3.19;100.00;99493.22;4960015;28;20076;-70
2021/12/08 01:23:31;;;;;;;10.93;4.47;;;;;;;3.15;100.00;99507.50;4968218;28;20041;-72
2021/12/08 01:25:57;;;;;;;10.88;4.93;;;;;;;3.26;100.00;99487.31;4973582;28;20034;-69
2021/12/08 01:28:24;;;;;;;12.70;4.47;;;;;;;3.05;100.00;99476.06;4971366;28;20392;-71
2021/12/08 01:30:52;;;;;;;7.95;3.28;;;;;;;3.17;100.00;99484.81;4963721;28;20042;-70
2021/12/08 01:33:19;;;;;;;19.42;4.72;;;;;;;3.13;100.00;99483.91;4967717;28;20034;-69
2021/12/08 01:35:46;;;;;;;7.95;3.15;;;;;;;3.26;100.00;99477.47;4959063;28;22395;-70
2021/12/08 01:38:11;;;;;;;14.63;5.05;;;;;;;3.27;100.00;99471.03;4965387;28;20037;-70
2021/12/08 01:40:37;;;;;;;9.60;3.58;;;;;;;3.41;100.00;99452.06;4973301;28;20034;-71
2021/12/08 01:43:03;;;;;;;17.08;3.67;;;;;;;3.48;100.00;99454.94;4963228;28;20027;-69
2021/12/08 01:48:19;;;;;;;9.35;2.95;;;;;;;3.50;100.00;99434.09;4973478;28;20035;-69
2021/12/08 01:50:49;;;;;;;8.70;3.92;;;;;;;3.44;100.00;99424.78;4968737;28;20094;-69
2021/12/08 01:53:15;;;;;;;9.80;3.85;;;;;;;3.38;100.00;99416.28;4966893;28;20094;-69
2021/12/08 01:55:41;;;;;;;7.78;3.75;;;;;;;3.37;100.00;99404.06;4956459;28;20035;-69
2021/12/08 01:58:08;;;;;;;11.32;3.03;;;;;;;3.47;100.00;99392.16;4948627;28;20042;-70
2021/12/08 02:00:40;;;;;;;14.27;4.32;;;;;;;3.51;100.00;99398.38;4970042;28;20117;-70
2021/12/08 02:03:07;;;;;;;11.48;3.33;;;;;;;3.42;100.00;99395.88;4962700;28;20101;-69
2021/12/08 02:05:33;;;;;;;12.65;4.55;;;;;;;3.46;100.00;99390.63;4964877;28;20106;-69
2021/12/08 02:07:58;;;;;;;12.45;3.92;;;;;;;3.51;100.00;99382.41;4969766;28;20038;-69
2021/12/08 02:10:24;;;;;;;9.80;3.75;;;;;;;3.54;100.00;99390.47;4966867;28;20489;-70
2021/12/08 02:12:50;;;;;;;17.25;3.90;;;;;;;3.52;100.00;99379.41;4970901;28;20089;-70
2021/12/08 02:15:18;;;;;;;9.00;3.08;;;;;;;3.57;100.00;99384.50;4973259;28;20088;-70
2021/12/08 02:17:49;;;;;;;8.40;3.42;;;;;;;3.53;100.00;99380.97;4963519;28;20042;-69
2021/12/08 02:20:15;;;;;;;;;;;;;;;3.40;100.00;99365.38;4965032;28;20069;-70
2021/12/08 02:22:41;;;;;;;8.02;2.58;;;;;;;3.46;100.00;99359.50;4970518;28;20016;-69
2021/12/08 02:25:14;;;;;;;10.95;4.10;;;;;;;3.38;100.00;99347.09;4959788;28;20031;-69
2021/12/08 02:27:39;;;;;;;7.43;3.38;;;;;;;3.41;100.00;99335.78;4953648;28;20210;-70
2021/12/08 02:30:20;;;;;;;7.57;3.83;;;;;;;3.29;100.00;99327.84;4946735;28;20149;-70
2021/12/08 02:46:46;;;;;;;11.40;3.92;;;;;;;3.31;100.00;99317.63;4968858;28;20050;-71
2021/12/08 02:49:13;;;;;;;11.27;3.20;;;;;;;3.37;100.00;99310.19;4955828;28;20038;-71
2021/12/08 02:51:40;;;;;;;12.75;3.72;;;;;;;3.36;100.00;99300.66;4968276;28;20039;-70
2021/12/08 02:54:06;;;;;;;8.57;3.80;;;;;;;3.37;100.00;99313.63;4962738;28;20062;-69
2021/12/08 02:56:32;;;;;;;8.65;3.63;;;;;;;3.32;100.00;99295.25;4965380;28;20031;-70
2021/12/08 02:58:58;;;;;;;8.07;3.10;;;;;;;3.39;100.00;99300.75;4963021;28;20128;-70
2021/12/08 03:01:25;;;;;;;7.72;4.10;;;;;;;3.41;100.00;99287.13;4972916;28;20058;-69
2021/12/08 03:03:51;;;;;;;5.82;3.22;;;;;;;3.37;100.00;99288.91;4961057;28;20043;-70
2021/12/08 03:06:17;;;;;;;6.25;3.35;;;;;;;3.36;100.00;99287.38;4971841;28;20507;-70
2021/12/08 03:08:43;;;;;;;12.88;2.63;;;;;;;3.30;100.00;99284.19;4963872;28;20046;-69
2021/12/08 03:11:08;;;;;;;8.75;3.25;;;;;;;3.35;100.00;99280.50;4962400;28;20415;-69
2021/12/08 03:13:38;;;;;;;13.75;3.75;;;;;;;3.40;100.00;99280.25;4972433;28;20031;-69
2021/12/08 03:16:05;;;;;;;7.68;3.50;;;;;;;3.30;100.00;99276.22;4972604;28;20038;-71
2021/12/08 03:18:34;;;;;;;13.02;3.33;;;;;;;3.27;100.00;99292.09;4962180;28;20507;-69
2021/12/08 03:21:05;;;;;;;6.80;3.28;;;;;;;3.31;100.00;99277.00;4953437;28;20039;-70
2021/12/08 03:23:46;;;;;;;5.40;2.95;;;;;;;3.32;100.00;99266.00;4972035;28;20062;-70
2021/12/08 03:26:12;;;;;;;9.65;4.38;;;;;;;3.32;100.00;99273.97;4968681;28;20117;-70
2021/12/08 03:28:44;;;;;;;13.73;3.85;;;;;;;3.41;100.00;99263.16;4964061;28;20494;-70
2021/12/08 03:31:17;;;;;;;16.67;3.80;;;;;;;3.45;100.00;99262.16;4958761;28;20047;-70
2021/12/08 03:33:44;;;;;;;6.95;3.00;;;;;;;3.37;100.00;99260.44;4961257;28;20027;-70
2021/12/08 03:36:10;;;;;;;17.77;3.80;;;;;;;3.44;100.00;99255.31;4952515;28;20121;-71
2021/12/08 03:38:36;;;;;;;7.57;2.80;;;;;;;3.41;100.00;99240.00;4966469;28;20043;-70
2021/12/08 03:41:03;;;;;;;7.05;3.83;;;;;;;3.48;100.00;99247.41;4963959;28;20042;-70
2021/12/08 03:43:30;;;;;;;9.75;3.05;;;;;;;3.51;100.00;99258.13;4971377;28;20121;-70
2021/12/08 03:45:56;;;;;;;6.95;3.78;;;;;;;3.27;100.00;99247.63;4968818;28;20126;-71
2021/12/08 03:48:30;;;;;;;6.47;3.05;;;;;;;3.30;100.00;99246.94;4967102;28;20038;-70
2021/12/08 03:50:56;;;;;;;9.07;4.22;;;;;;;3.33;100.00;99248.91;4967241;28;20038;-71
2021/12/08 03:53:22;;;;;;;11.13;4.18;;;;;;;3.32;100.00;99251.94;4968495;28;20037;-70
2021/12/08 03:55:50;;;;;;;17.05;3.63;;;;;;;3.29;100.00;99247.31;4965678;28;20105;-70
2021/12/08 03:58:17;;;;;;;9.73;2.00;;;;;;;3.42;100.00;99244.22;4970720;28;20415;-70
2021/12/08 04:00:45;;;;;;;13.98;4.32;;;;;;;3.47;100.00;99251.16;4960005;28;20041;-70
2021/12/08 04:03:12;;;;;;;12.45;3.65;;;;;;;3.35;100.00;99264.53;4968861;28;20027;-71
2021/12/08 04:06:03;;;;;;;6.93;2.88;;;;;;;3.39;100.00;99274.16;4921959;28;20038;-71
2021/12/08 04:08:32;;;;;;;9.77;3.35;;;;;;;3.34;100.00;99281.63;4961934;28;20050;-69
2021/12/08 04:11:00;;;;;;;7.20;2.97;;;;;;;3.30;100.00;99270.88;4962472;28;20126;-70
2021/12/08 04:13:32;;;;;;;8.80;4.00;;;;;;;3.31;100.00;99277.00;4961734;28;20070;-70
2021/12/08 04:15:58;;;;;;;10.80;4.28;;;;;;;3.38;100.00;99277.94;4969760;28;20043;-70
2021/12/08 04:18:23;;;;;;;9.60;3.50;;;;;;;3.36;100.00;99285.50;4970790;28;20035;-70
2021/12/08 04:20:53;;;;;;;9.63;3.80;;;;;;;3.39;100.00;99286.69;4947420;28;20046;-70
2021/12/08 04:23:22;;;;;;;14.00;3.63;;;;;;;3.41;100.00;99295.09;4962334;28;20024;-70
2021/12/08 04:25:50;;;;;;;8.73;3.30;;;;;;;3.41;100.00;99289.78;4971079;28;20049;-69
2021/12/08 04:28:21;;;;;;;9.20;3.17;;;;;;;3.46;100.00;99316.16;4967001;28;20933;-70
2021/12/08 04:30:56;;;;;;;7.05;2.85;;;;;;;3.45;100.00;99307.38;4968062;28;20035;-69
2021/12/08 04:33:23;;;;;;;7.40;2.60;;;;;;;3.43;100.00;99301.63;4953251;28;20125;-69
2021/12/08 04:35:53;;;;;;;6.75;2.92;;;;;;;3.48;100.00;99303.28;4972129;28;20034;-69
2021/12/08 04:38:25;;;;;;;7.53;2.95;;;;;;;3.58;100.00;99308.09;4964122;28;20047;-70
2021/12/08 04:43:46;;;;;;;10.25;3.55;;;;;;;3.61;100.00;99308.19;4973182;28;20035;-69
2021/12/08 04:46:54;;;;;;;9.88;2.45;;;;;;;3.61;100.00;99289.56;4970702;28;20107;-70
2021/12/08 04:52:26;;;;;;;8.38;3.05;;;;;;;3.70;99.81;99301.94;4939163;28;20031;-69
2021/12/08 05:01:11;;;;;;;6.97;2.78;;;;;;;3.87;98.04;99274.97;4972592;28;20053;-69
2021/12/08 05:06:49;;;;;;;7.57;2.92;;;;;;;3.77;99.44;99278.16;4956368;29;20043;-69
2021/12/08 05:09:36;;;;;;;5.20;2.30;;;;;;;3.63;100.00;99290.00;4961875;28;20035;-68
2021/12/08 05:12:20;;;;;;;7.07;2.10;;;;;;;3.51;100.00;99282.06;4955078;29;20073;-68
2021/12/08 05:14:52;;;;;;;6.40;2.35;;;;;;;3.44;100.00;99289.09;4937964;29;20098;-68
2021/12/08 05:17:25;;;;;;;9.95;3.67;;;;;;;3.47;100.00;99286.53;4963331;28;20038;-70
2021/12/08 05:19:55;;;;;;;7.50;3.08;;;;;;;3.45;100.00;99278.13;4967089;28;20043;-68
2021/12/08 05:22:26;;;;;;;12.15;3.45;;;;;;;3.41;100.00;99287.13;4974620;28;20031;-68
2021/12/08 05:24:54;;;;;;;7.15;2.35;;;;;;;3.48;100.00;99282.75;4961325;28;20070;-68
2021/12/08 05:27:27;;;;;;;8.70;2.83;;;;;;;3.43;100.00;99280.34;4968690;28;20114;-69
2021/12/08 05:30:00;;;;;;;8.63;3.92;;;;;;;3.38;100.00;99283.28;4966071;28;20041;-69
2021/12/08 05:32:25;;;;;;;9.32;3.25;;;;;;;3.38;100.00;99293.91;4964633;28;20039;-69
2021/12/08 05:34:51;;;;;;;9.10;3.42;;;;;;;3.44;100.00;99289.88;4971836;28;20038;-68
2021/12/08 05:37:22;;;;;;;6.72;2.22;;;;;;;3.33;100.00;99286.16;4974480;28;20031;-69
2021/12/08 05:39:48;;;;;;;;;;;;;;;3.27;100.00;99278.78;4970505;28;20062;-68
2021/12/08 05:42:18;;;;;;;5.20;2.50;;;;;;;3.19;100.00;99285.03;4967748;28;19944;-68
2021/12/08 05:44:44;;;;;;;18.98;4.40;;;;;;;3.20;100.00;99295.31;4969619;28;20039;-69
2021/12/08 05:47:18;;;;;;;6.88;2.85;;;;;;;3.26;100.00;99282.53;4966891;28;20645;-69
2021/12/08 05:49:45;;;;;;;8.07;3.25;;;;;;;3.25;100.00;99287.06;4973604;28;20038;-68
2021/12/08 05:52:11;;;;;;;10.05;3.50;;;;;;;3.14;100.00;99287.91;4972918;28;20046;-71
2021/12/08 05:54:39;;;;;;;8.35;4.70;;;;;;;3.11;100.00;99299.22;4963111;28;20039;-69
2021/12/08 05:57:20;;;;;;;10.70;3.75;;;;;;;3.01;100.00;99294.38;4954557;29;20042;-69
2021/12/08 05:59:48;;;;;;;6.13;3.08;;;;;;;3.05;100.00;99295.25;4963096;28;20049;-69
2021/12/08 06:02:18;;;;;;;5.68;2.90;;;;;;;3.14;100.00;99309.97;4968194;28;20038;-69
2021/12/08 06:04:44;;;;;;;9.25;3.72;;;;;;;3.18;100.00;99294.88;4956200;28;20504;-69
2021/12/08 06:07:12;;;;;;;13.48;4.95;;;;;;;3.14;100.00;99301.19;4953919;28;20035;-68
2021/12/08 06:09:38;;;;;;;8.52;3.03;;;;;;;3.15;100.00;99306.19;4961823;28;20035;-69
2021/12/08 06:12:07;;;;;;;10.73;3.80;;;;;;;2.94;100.00;99294.19;4971339;28;20408;-69
2021/12/08 06:14:34;;;;;;;9.57;3.33;;;;;;;2.94;100.00;99304.84;4962539;28;20405;-70
2021/12/08 06:17:11;;;;;;;7.85;2.55;;;;;;;3.03;100.00;99292.94;4972472;28;20391;-69
2021/12/08 06:19:40;;;;;;;6.28;3.05;;;;;;;3.13;100.00;99300.44;4973572;28;20039;-69
2021/12/08 06:22:08;;;;;;;6.38;2.55;;;;;;;2.98;100.00;99289.75;4966362;28;20109;-69
2021/12/08 06:24:34;;;;;;;5.15;2.15;;;;;;;2.88;100.00;99298.19;4968931;28;20047;-69
2021/12/08 06:27:00;;;;;;;6.45;2.70;;;;;;;2.95;100.00;99291.19;4972954;28;20113;-69
2021/12/08 06:29:25;;;;;;;8.65;3.08;;;;;;;3.07;100.00;99287.72;4969439;28;20634;-69
2021/12/08 06:31:57;;;;;;;6.97;3.33;;;;;;;3.02;100.00;99286.06;4962873;28;20049;-70
2021/12/08 06:34:25;;;;;;;9.32;3.92;;;;;;;2.94;100.00;99300.28;4969716;28;20035;-69
2021/12/08 06:36:56;;;;;;;7.57;3.05;;;;;;;3.00;100.00;99296.25;4968434;28;20506;-69
2021/12/08 06:39:28;;;;;;;8.32;3.45;;;;;;;2.89;100.00;99297.84;4967621;28;20053;-69
2021/12/08 06:42:04;;;;;;;7.15;3.25;;;;;;;2.80;100.00;99299.88;4954062;29;20059;-69
2021/12/08 06:44:40;;;;;;;11.68;3.08;;;;;;;2.77;100.00;99300.53;4960654;28;20035;-69
2021/12/08 06:47:08;;;;;;;6.70;3.33;;;;;;;2.88;100.00;99308.84;4960235;28;20039;-69
2021/12/08 06:49:34;;;;;;;9.20;3.65;;;;;;;2.87;100.00;99308.06;4961866;28;20034;-69
2021/12/08 06:52:30;;;;;;;6.70;2.45;;;;;;;2.86;100.00;99301.19;4966774;28;20331;-69
2021/12/08 06:55:00;;;;;;;10.05;2.70;;;;;;;2.90;100.00;99303.97;4970741;28;20043;-69
2021/12/08 06:57:34;;;;;;;10.75;3.70;;;;;;;2.83;100.00;99312.50;4970868;28;20046;-73
2021/12/08 07:00:14;;;;;;;4.15;2.70;;;;;;;2.86;100.00;99303.06;4953843;28;20035;-70
2021/12/08 07:05:13;;;;;;;2.97;2.50;;;;;;;2.79;100.00;99324.91;4951140;28;20050;-69
2021/12/08 07:07:43;;;;;;;4.68;2.72;;;;;;;2.88;100.00;99306.97;4952134;28;20034;-68
2021/12/08 07:10:22;;;;;;;6.75;3.67;;;;;;;2.90;100.00;99306.63;4955435;28;20499;-68
2021/12/08 07:12:52;;;;;;;12.82;3.75;;;;;;;3.02;100.00;99315.31;4950071;28;20031;-69
2021/12/08 07:15:34;;;;;;;8.27;3.33;;;;;;;2.95;100.00;99303.72;4954649;28;20539;-69
2021/12/08 07:18:08;;;;;;;10.00;3.67;;;;;;;3.00;100.00;99325.50;4942758;28;20130;-69
2021/12/08 07:20:45;;;;;;;13.02;4.43;;;;;;;2.90;100.00;99323.34;4959884;28;20259;-68
2021/12/08 07:23:20;;;;;;;6.78;2.10;;;;;;;2.89;100.00;99321.78;4955089;28;20050;-69
2021/12/08 07:25:51;;;;;;;6.57;3.00;;;;;;;2.82;100.00;99313.63;4950064;28;20696;-69
2021/12/08 07:28:20;;;;;;;7.15;3.17;;;;;;;2.98;100.00;99321.66;4965087;28;20034;-70
2021/12/08 07:30:51;;;;;;;8.77;3.75;;;;;;;2.99;100.00;99317.88;4963043;28;20065;-70
2021/12/08 07:33:19;;;;;;;4.63;2.92;;;;;;;2.85;100.00;99330.75;4960372;28;20035;-70
2021/12/08 07:35:50;;;;;;;9.30;3.58;;;;;;;2.86;100.00;99330.44;4949353;28;20042;-69
2021/12/08 07:38:21;;;;;;;13.48;4.13;;;;;;;2.90;100.00;99328.66;4995751;22;20053;-71
2021/12/08 07:40:52;;;;;;;11.63;3.15;;;;;;;2.96;100.00;99335.25;4994886;28;20038;-71
2021/12/08 07:43:23;;;;;;;9.18;3.83;;;;;;;2.93;100.00;99325.31;4994057;28;20513;-71
2021/12/08 07:45:53;;;;;;;9.15;3.78;;;;;;;2.98;100.00;99334.94;4990562;28;20034;-71
2021/12/08 07:48:24;;;;;;;7.45;2.88;;;;;;;2.95;100.00;99333.72;4998965;28;20040;-70
2021/12/08 07:51:02;;;;;;;4.78;2.15;;;;;;;2.93;100.00;99324.53;5003680;28;20065;-71
2021/12/08 07:53:29;;;;;;;11.98;4.28;;;;;;;2.96;100.00;99324.63;5000017;28;20038;-71
2021/12/08 07:56:03;;;;;;;9.18;4.43;;;;;;;2.94;100.00;99337.50;4998905;28;20041;-72
2021/12/08 07:58:31;;;;;;;8.10;3.85;;;;;;;2.99;100.00;99333.81;4996688;28;20108;-71
2021/12/08 08:01:04;;;;;;;11.00;3.25;;;;;;;3.00;100.00;99322.84;4997321;28;20052;-71
2021/12/08 08:03:32;;;;;;;11.95;4.78;;;;;;;2.98;100.00;99322.41;5002312;28;20429;-71
2021/12/08 08:06:00;;;;;;;16.20;4.45;;;;;;;3.04;100.00;99333.59;5000196;28;20037;-70
2021/12/08 08:08:30;;;;;;;8.23;2.85;;;;;;;3.06;100.00;99332.13;4988345;28;20022;-71
2021/12/08 08:11:01;;;;;;;5.88;3.30;;;;;;;3.04;100.00;99337.00;4991263;28;20109;-71
2021/12/08 08:13:28;;;;;;;7.07;3.00;;;;;;;2.86;100.00;99333.09;4994302;28;20120;-71
2021/12/08 08:16:04;;;;;;;10.30;4.07;;;;;;;2.94;100.00;99337.50;4983120;28;20050;-71
2021/12/08 08:18:31;;;;;;;11.65;3.40;;;;;;;2.86;100.00;99345.59;4995655;28;20117;-71
2021/12/08 08:21:04;;;;;;;7.55;3.40;;;;;;;2.90;100.00;99344.59;4999007;28;20037;-71
2021/12/08 08:23:31;;;;;;;8.57;2.90;;;;;;;2.90;100.00;99352.59;4990170;28;20044;-71
2021/12/08 08:26:01;;;;;;;7.68;3.25;;;;;;;2.92;100.00;99353.03;4997804;28;20041;-71
2021/12/08 08:28:27;;;;;;;9.80;2.67;;;;;;;3.05;100.00;99354.53;4999453;28;20034;-70
2021/12/08 08:31:02;;;;;;;4.50;2.97;;;;;;;3.05;100.00;99351.88;4996087;28;20030;-71
2021/12/08 08:33:30;;;;;;;8.75;3.25;;;;;;;3.04;100.00;99352.22;4994820;28;20471;-71
2021/12/08 08:36:04;;;;;;;6.90;2.92;;;;;;;3.01;100.00;99374.91;4997262;28;20050;-71
2021/12/08 08:38:34;;;;;;;9.15;3.20;;;;;;;2.95;100.00;99349.69;4995504;28;20144;-71
2021/12/08 08:41:19;;;;;;;5.55;2.88;;;;;;;3.04;100.00;99365.50;4990580;28;20037;-71
2021/12/08 08:43:46;;;;;;;7.13;3.20;;;;;;;3.15;100.00;99355.94;4994927;28;20117;-71
2021/12/08 08:46:16;;;;;;;6.63;3.15;;;;;;;3.12;100.00;99362.69;4999448;28;20406;-71
2021/12/08 08:48:53;;;;;;;6.30;3.00;;;;;;;3.16;100.00;99366.25;4992160;28;20038;-71
2021/12/08 08:51:41;;;;;;;8.23;3.67;;;;;;;3.06;100.00;99360.63;4999500;28;20033;-72
2021/12/08 08:54:13;;;;;;;8.70;3.17;;;;;;;3.03;100.00;99354.09;5004049;28;20038;-71
2021/12/08 08:56:45;;;;;;;9.32;4.63;;;;;;;3.03;100.00;99369.25;4992759;28;20045;-71
2021/12/08 08:59:19;;;;;;;8.35;3.17;;;;;;;3.22;100.00;99358.78;4996847;28;20041;-72
2021/12/08 09:01:49;;;;;;;8.05;2.90;;;;;;;3.15;100.00;99366.59;4994880;28;20021;-71
2021/12/08 09:04:30;;;;;;;5.43;2.80;;;;;;;3.17;100.00;99367.81;4993005;28;20054;-72
2021/12/08 09:07:02;;;;;;;8.68;3.53;;;;;;;3.21;100.00;99367.91;4995694;28;20046;-71
2021/12/08 09:09:30;;;;;;;7.20;3.28;;;;;;;3.14;100.00;99378.31;4997534;28;20030;-71
2021/12/08 09:12:05;;;;;;;5.85;2.35;;;;;;;3.23;100.00;99371.00;4992607;28;20038;-71
2021/12/08 09:15:07;;;;;;;7.28;3.88;;;;;;;3.29;100.00;99375.72;5003192;28;20053;-71
2021/12/08 09:17:43;;;;;;;8.73;3.17;;;;;;;3.23;100.00;99360.34;4988896;28;20483;-71
2021/12/08 09:20:27;;;;;;;5.57;2.97;;;;;;;3.23;100.00;99371.75;4989957;28;20112;-71
2021/12/08 09:23:04;;;;;;;6.38;2.85;;;;;;;3.21;100.00;99371.34;4993679;28;20041;-72
2021/12/08 09:25:47;;;;;;;6.65;2.60;;;;;;;3.27;100.00;99377.19;5009553;28;20037;-71
2021/12/08 09:28:21;;;;;;;9.65;3.47;;;;;;;3.33;100.00;99386.47;5012841;28;20037;-71
2021/12/08 09:31:02;;;;;;;6.47;2.92;;;;;;;3.34;100.00;99380.03;4998511;28;20030;-71
2021/12/08 09:33:37;;;;;;;4.10;2.00;;;;;;;3.49;100.00;99395.28;4996778;28;20038;-71
2021/12/08 09:36:09;;;;;;;6.75;2.80;;;;;;;3.44;100.00;99387.53;5003360;28;20545;-71
2021/12/08 09:39:00;;;;;;;5.95;3.17;;;;;;;3.43;100.00;99381.44;5001729;28;20407;-71
2021/12/08 09:41:38;;;;;;;8.50;2.75;;;;;;;3.43;100.00;99381.44;5000284;28;20138;-71
2021/12/08 09:44:15;;;;;;;8.05;3.53;;;;;;;3.40;100.00;99403.41;4996383;28;20033;-71
2021/12/08 09:46:43;;;;;;;12.27;3.58;;;;;;;3.49;100.00;99400.59;4997910;28;20040;-72
2021/12/08 09:49:12;;;;;;;4.18;2.35;;;;;;;3.52;100.00;99392.69;4992919;28;20042;-71
2021/12/08 09:51:42;;;;;;;5.28;2.42;;;;;;;3.46;100.00;99394.09;5004040;28;20064;-71
2021/12/08 09:54:07;;;;;;;8.15;3.50;;;;;;;3.35;100.00;99400.19;4992720;28;20514;-71
2021/12/08 09:56:34;;;;;;;7.07;2.85;;;;;;;3.38;100.00;99397.66;5004312;28;20030;-71
2021/12/08 09:59:02;;;;;;;5.10;2.67;;;;;;;3.58;100.00;99401.25;4999784;28;20553;-71
2021/12/08 10:01:29;;;;;;;6.72;2.63;;;;;;;3.49;100.00;99388.06;5001505;28;20120;-71
2021/12/08 10:03:55;;;;;;;5.53;2.85;;;;;;;3.48;100.00;99386.50;4997386;28;20066;-71
2021/12/08 10:06:23;;;;;;;6.85;3.38;;;;;;;3.62;100.00;99384.25;5000456;28;20042;-71
2021/12/08 10:08:50;;;;;;;7.75;4.20;;;;;;;3.64;100.00;99381.22;4998961;28;20049;-71
2021/12/08 10:11:18;;;;;;;5.97;3.45;;;;;;;3.60;100.00;99375.06;4993971;28;20029;-71
2021/12/08 10:13:45;;;;;;;4.35;1.77;;;;;;;3.64;100.00;99386.56;5001263;28;20033;-71
2021/12/08 10:16:13;;;;;;;5.25;3.00;;;;;;;3.67;100.00;99373.38;4992338;28;20096;-71
2021/12/08 10:18:43;;;;;;;8.18;3.72;;;;;;;3.73;100.00;99373.09;4997451;28;20038;-71
2021/12/08 10:21:10;;;;;;;8.93;3.10;;;;;;;3.82;100.00;99381.69;4992911;28;20034;-71
2021/12/08 10:23:38;;;;;;;7.72;3.25;;;;;;;3.70;100.00;99377.22;4996674;28;20054;-71
2021/12/08 10:26:05;;;;;;;6.43;2.80;;;;;;;3.81;100.00;99382.84;4995223;28;20044;-71
2021/12/08 10:28:38;;;;;;;7.75;3.58;;;;;;;3.78;100.00;99381.63;4998774;28;20434;-71
2021/12/08 10:31:41;;;;;;;3.55;2.38;;;;;;;3.68;100.00;99404.19;5008510;28;20044;-71
2021/12/08 10:36:55;;;;;;;3.38;2.47;;;;;;;3.78;100.00;99399.47;4993035;28;20038;-70
2021/12/08 10:39:23;;;;;;;8.63;4.22;;;;;;;3.86;100.00;99401.19;4994476;28;20038;-70
2021/12/08 10:41:52;;;;;;;9.38;3.10;;;;;;;3.78;100.00;99392.25;4992682;28;20053;-70
2021/12/08 10:44:49;;;;;;;6.45;2.83;;;;;;;3.85;100.00;99400.44;4997138;28;20466;-70
2021/12/08 10:47:24;;;;;;;7.72;2.70;;;;;;;3.84;100.00;99396.22;4998439;28;20046;-71
2021/12/08 10:55:21;;;;;;;5.03;2.55;;;;;;;4.00;100.00;99372.28;4988849;28;20073;-70
2021/12/08 10:57:53;;;;;;;11.32;3.72;;;;;;;3.93;100.00;99364.88;4996370;28;20197;-70
2021/12/08 11:00:18;;;;;;;4.47;2.10;;;;;;;4.01;100.00;99366.63;4991388;28;20511;-70
2021/12/08 11:02:46;;;;;;;4.53;2.95;;;;;;;4.01;100.00;99377.25;4992318;28;20038;-70
2021/12/08 11:05:23;;;;;;;5.70;2.95;;;;;;;3.99;100.00;99373.41;4992383;28;20050;-70
2021/12/08 11:08:13;;;;;;;9.57;2.80;;;;;;;4.04;100.00;99371.28;4992661;28;20039;-71
2021/12/08 11:10:49;;;;;;;8.18;2.60;;;;;;;3.97;100.00;99367.66;4995327;28;20042;-71
2021/12/08 11:13:17;;;;;;;12.10;3.70;;;;;;;3.99;100.00;99371.50;5005186;28;20057;-70
2021/12/08 11:15:45;;;;;;;2.97;1.92;;;;;;;4.05;100.00;99377.34;4994822;28;20030;-71
2021/12/08 11:18:21;;;;;;;5.50;2.70;;;;;;;4.02;100.00;99380.72;4997823;28;20622;-70
2021/12/08 11:20:49;;;;;;;6.30;2.80;;;;;;;4.08;100.00;99380.13;4990654;28;20502;-70
2021/12/08 11:23:27;;;;;;;5.05;2.38;;;;;;;4.07;100.00;99386.56;4994966;28;20022;-70
2021/12/08 11:25:53;;;;;;;6.55;2.88;;;;;;;4.08;100.00;99384.66;4999523;28;20044;-70
2021/12/08 11:28:20;;;;;;;4.20;2.63;;;;;;;4.06;100.00;99376.25;4994031;28;20038;-70
2021/12/08 11:30:46;;;;;;;5.20;2.40;;;;;;;4.01;100.00;99368.50;4990609;28;20026;-71
2021/12/08 11:33:18;;;;;;;9.10;3.97;;;;;;;4.02;100.00;99370.06;4989238;28;20088;-71
2021/12/08 11:35:46;;;;;;;6.53;2.55;;;;;;;4.09;100.00;99367.56;5004110;28;20050;-70
2021/12/08 11:38:12;;;;;;;6.10;2.03;;;;;;;4.06;100.00;99376.25;4992088;28;20044;-70
2021/12/08 11:40:39;;;;;;;5.75;3.72;;;;;;;4.00;100.00;99382.94;4990764;28;20034;-70
2021/12/08 11:43:13;;;;;;;9.75;3.83;;;;;;;3.99;100.00;99397.38;4991242;28;20021;-71
2021/12/08 11:45:40;;;;;;;9.68;3.30;;;;;;;4.01;100.00;99393.25;4993781;28;20041;-71
2021/12/08 11:48:25;;;;;;;7.43;3.95;;;;;;;4.18;100.00;99389.50;4991031;28;20069;-70
2021/12/08 11:51:10;;;;;;;5.38;2.92;;;;;;;4.14;100.00;99400.03;4989887;28;20042;-70
2021/12/08 11:53:37;;;;;;;8.90;3.60;;;;;;;4.17;100.00;99407.34;4997763;28;20030;-70
2021/12/08 11:56:04;;;;;;;5.55;3.10;;;;;;;4.20;100.00;99403.25;5005030;28;20172;-70
2021/12/08 11:58:29;;;;;;;5.57;2.78;;;;;;;4.05;100.00;99403.97;4999310;28;20034;-70
2021/12/08 12:00:55;;;;;;;8.35;3.63;;;;;;;4.10;100.00;99409.06;5010308;28;20049;-71
2021/12/08 12:03:20;;;;;;;5.78;2.88;;;;;;;3.99;100.00;99406.13;5003668;28;20037;-70
2021/12/08 12:05:48;;;;;;;6.95;3.08;;;;;;;4.02;100.00;99394.81;4997560;28;20099;-70
2021/12/08 12:08:17;;;;;;;6.10;3.08;;;;;;;4.06;100.00;99398.34;5002665;28;20044;-70
2021/12/08 12:10:46;;;;;;;7.57;3.20;;;;;;;4.16;100.00;99402.38;4991913;28;20799;-71
2021/12/08 12:13:12;;;;;;;5.85;3.20;;;;;;;4.14;100.00;99408.03;4998502;28;20033;-70
2021/12/08 12:15:44;;;;;;;8.32;2.88;;;;;;;4.35;100.00;99402.47;5005510;28;20402;-71
2021/12/08 12:18:14;;;;;;;4.97;2.92;;;;;;;4.26;100.00;99404.50;4999356;28;20041;-70
2021/12/08 12:20:43;;;;;;;12.30;4.18;;;;;;;4.25;100.00;99401.09;4995261;28;20029;-71
2021/12/08 12:23:44;;;;;;;6.93;2.80;;;;;;;4.19;100.00;99399.03;4991718;28;20065;-70
2021/12/08 12:26:39;;;;;;;12.32;2.92;;;;;;;4.21;100.00;99404.78;4989845;28;20726;-70
2021/12/08 12:29:14;;;;;;;4.07;2.92;;;;;;;4.13;100.00;99409.16;4990840;28;20056;-70
2021/12/08 12:31:53;;;;;;;9.63;3.72;;;;;;;4.27;100.00;99414.06;4997085;28;20084;-71
2021/12/08 12:34:24;;;;;;;7.32;3.33;;;;;;;4.30;100.00;99414.16;5009800;28;20092;-70